Ice Star — OUJK2 — position and weather

sailwx.info

Track history (hours):
 
Tides and Currents Weather Stations Pressure Air Temp Water Temp Dewpoint Dewpoint Depression Visibility Wind Speed Wind Dir Waves Ship Positions

Ice Star

Last reported at 2016-Feb-09 05:27 UTC. Time now 2016-Feb-09 05:46 UTC.
Position N 38°28' E 015°55'.

Length 367 m; draft 13 m.

Type: Ship. MMSI: 220596000.

Date/timePositionNaut miles runAvg speedWind from/ knotsBaromVisibWave heightAir tempDewpointWater temp
2016-Feb-09 05:27N 38°28' E 015°55'0 0.0
2016-Feb-09 04:33N 38°28' E 015°55'0 0.0
2016-Feb-09 03:33N 38°28' E 015°55'0 0.0
2016-Feb-09 02:30N 38°28' E 015°55'0 0.0
2016-Feb-09 01:33N 38°28' E 015°55'0 0.0
2016-Feb-09 00:33N 38°28' E 015°55'0 0.0
2016-Feb-08 23:30N 38°28' E 015°55'0 0.0
2016-Feb-08 22:33N 38°28' E 015°55'0 0.0
2016-Feb-08 21:33N 38°28' E 015°55'0 0.0
2016-Feb-08 20:33N 38°28' E 015°55'0 0.0
2016-Feb-08 19:30N 38°28' E 015°55'0 0.0
2016-Feb-08 18:30N 38°28' E 015°55'0 0.0
2016-Feb-08 17:24N 38°28' E 015°55'0 0.0
2016-Feb-08 16:33N 38°28' E 015°55'0 0.0
2016-Feb-08 15:30N 38°28' E 015°55'0 0.0
2016-Feb-08 14:33N 38°28' E 015°55'0 0.0
2016-Feb-08 13:33N 38°28' E 015°55'0 0.0
2016-Feb-08 12:33N 38°28' E 015°55'0 0.0
2016-Feb-08 11:33N 38°28' E 015°55'0 0.0
2016-Feb-08 10:33N 38°28' E 015°55'0 0.0
2016-Feb-08 09:24N 38°28' E 015°55'0 0.0
2016-Feb-08 08:33N 38°28' E 015°55'0 0.0
2016-Feb-08 07:18N 38°28' E 015°55'0 0.1
2016-Feb-08 06:33N 38°28' E 015°55'3 3.0
2016-Feb-08 05:33N 38°28' E 015°51'1 1.3
2016-Feb-08 04:32N 38°29' E 015°49'3 3.1
2016-Feb-08 03:33N 38°26' E 015°48'9 8.8
2016-Feb-08 02:33N 38°18' E 015°44'1414.0
2016-Feb-08 01:33N 38°06' E 015°36'39814.2
2016-Feb-06 21:32N 44°36' E 013°56'49 1.5
2016-Feb-05 12:17N 45°09' E 013°06'1115.6
2016-Feb-05 11:34N 45°20' E 013°01'  
2016-Feb-01 09:05N 45°22' E 013°10'714.0
2016-Feb-01 08:33N 45°14' E 013°12'  
Track history (hours):
 
Tides and Currents Weather Stations Pressure Air Temp Water Temp Dewpoint Dewpoint Depression Visibility Wind Speed Wind Dir Waves Ship Positions

Ice Star

Last reported at 2016-Feb-09 05:27 UTC. Time now 2016-Feb-09 05:46 UTC.
Position N 38°28' E 015°55'.

Length 367 m; draft 13 m.

Type: Ship. MMSI: 220596000.

Date/timePositionNaut miles runAvg speedWind from/ knotsBaromVisibWave heightAir tempDewpointWater temp
2016-Feb-09 05:27N 38°28' E 015°55'0 0.0
2016-Feb-09 04:33N 38°28' E 015°55'0 0.0
2016-Feb-09 03:33N 38°28' E 015°55'0 0.0
2016-Feb-09 02:30N 38°28' E 015°55'0 0.0
2016-Feb-09 01:33N 38°28' E 015°55'0 0.0
2016-Feb-09 00:33N 38°28' E 015°55'0 0.0
2016-Feb-08 23:30N 38°28' E 015°55'0 0.0
2016-Feb-08 22:33N 38°28' E 015°55'0 0.0
2016-Feb-08 21:33N 38°28' E 015°55'0 0.0
2016-Feb-08 20:33N 38°28' E 015°55'0 0.0
2016-Feb-08 19:30N 38°28' E 015°55'0 0.0
2016-Feb-08 18:30N 38°28' E 015°55'0 0.0
2016-Feb-08 17:24N 38°28' E 015°55'0 0.0
2016-Feb-08 16:33N 38°28' E 015°55'0 0.0
2016-Feb-08 15:30N 38°28' E 015°55'0 0.0
2016-Feb-08 14:33N 38°28' E 015°55'0 0.0
2016-Feb-08 13:33N 38°28' E 015°55'0 0.0
2016-Feb-08 12:33N 38°28' E 015°55'0 0.0
2016-Feb-08 11:33N 38°28' E 015°55'0 0.0
2016-Feb-08 10:33N 38°28' E 015°55'0 0.0
2016-Feb-08 09:24N 38°28' E 015°55'0 0.0
2016-Feb-08 08:33N 38°28' E 015°55'0 0.0
2016-Feb-08 07:18N 38°28' E 015°55'0 0.1
2016-Feb-08 06:33N 38°28' E 015°55'3 3.0
2016-Feb-08 05:33N 38°28' E 015°51'1 1.3
2016-Feb-08 04:32N 38°29' E 015°49'3 3.1
2016-Feb-08 03:33N 38°26' E 015°48'9 8.8
2016-Feb-08 02:33N 38°18' E 015°44'1414.0
2016-Feb-08 01:33N 38°06' E 015°36'39814.2
2016-Feb-06 21:32N 44°36' E 013°56'49 1.5
2016-Feb-05 12:17N 45°09' E 013°06'1115.6
2016-Feb-05 11:34N 45°20' E 013°01'  
2016-Feb-01 09:05N 45°22' E 013°10'714.0
2016-Feb-01 08:33N 45°14' E 013°12'  

Dump ship's entire track history